createdAt,value
2019-02-26T00:00:51.852Z,0
2019-02-26T00:01:52.932Z,0
2019-02-26T00:07:16.271Z,0
2019-02-26T00:08:19.440Z,0
2019-02-26T00:09:20.522Z,0
2019-02-26T00:10:22.285Z,0
2019-02-26T00:11:19.628Z,0
2019-02-26T00:12:22.268Z,0
2019-02-26T00:13:23.365Z,0
2019-02-26T00:14:24.901Z,0
2019-02-26T00:15:24.985Z,0
2019-02-26T00:16:25.558Z,0
2019-02-26T00:17:26.126Z,0
2019-02-26T00:18:26.695Z,0
2019-02-26T00:20:15.058Z,0
2019-02-26T00:21:14.629Z,0
2019-02-26T00:22:15.978Z,0
2019-02-26T00:23:16.756Z,0
2019-02-26T00:24:17.325Z,0
2019-02-26T00:25:20.230Z,0
2019-02-26T00:26:20.656Z,0
2019-02-26T00:27:20.110Z,0
2019-02-26T00:28:22.088Z,0
2019-02-26T00:29:23.299Z,0
2019-02-26T00:30:23.953Z,0
2019-02-26T00:31:26.124Z,0
2019-02-26T00:32:26.287Z,0
2019-02-26T00:33:28.852Z,0
2019-02-26T00:34:30.492Z,0
2019-02-26T00:35:29.985Z,0
2019-02-26T00:36:31.584Z,0
2019-02-26T00:37:32.123Z,0
2019-02-26T00:38:33.613Z,0
2019-02-26T00:39:34.251Z,0
2019-02-26T00:40:36.664Z,0
2019-02-26T00:41:35.835Z,0
2019-02-26T00:42:36.392Z,0
2019-02-26T00:43:37.101Z,0
2019-02-26T00:44:37.570Z,0
2019-02-26T00:45:39.107Z,0
2019-02-26T00:46:39.700Z,0
2019-02-26T00:47:41.180Z,0
2019-02-26T00:48:43.130Z,0
2019-02-26T00:49:44.170Z,0
2019-02-26T00:50:45.057Z,0
2019-02-26T00:51:46.520Z,0
2019-02-26T00:52:47.188Z,0
2019-02-26T00:55:29.365Z,0
2019-02-26T00:56:29.833Z,0
2019-02-26T00:57:29.470Z,0
2019-02-26T00:58:32.094Z,0
2019-02-26T00:59:32.268Z,0
2019-02-26T01:00:33.742Z,0
2019-02-26T01:01:34.398Z,0
2019-02-26T01:05:45.624Z,0
2019-02-26T01:06:46.240Z,0
2019-02-26T01:07:49.347Z,0
2019-02-26T01:08:48.369Z,0
2019-02-26T01:09:50.272Z,0
2019-02-26T01:10:50.499Z,0
2019-02-26T01:11:51.955Z,0
2019-02-26T01:12:52.629Z,0
2019-02-26T01:17:12.651Z,0
2019-02-26T01:18:13.422Z,0
2019-02-26T01:19:15.352Z,0
2019-02-26T01:20:15.603Z,0
2019-02-26T01:21:16.170Z,0
2019-02-26T01:22:16.739Z,0
2019-02-26T01:23:21.067Z,0
2019-02-26T01:24:18.010Z,0
2019-02-26T01:25:22.332Z,0
2019-02-26T01:26:20.142Z,0
2019-02-26T01:27:20.755Z,0
2019-02-26T01:28:22.536Z,0
2019-02-26T01:33:46.382Z,0
2019-02-26T01:34:47.819Z,0
2019-02-26T01:35:47.791Z,0
2019-02-26T01:36:49.582Z,0
2019-02-26T01:37:51.465Z,0
2019-02-26T01:38:53.116Z,0
2019-02-26T01:39:53.863Z,0
2019-02-26T01:40:55.968Z,0
2019-02-26T01:41:58.290Z,0
2019-02-26T01:42:57.930Z,0
2019-02-26T01:43:58.437Z,0
2019-02-26T01:44:59.004Z,0
2019-02-26T01:45:59.573Z,0
2019-02-26T01:47:02.483Z,0
2019-02-26T01:48:01.700Z,0
2019-02-26T01:49:04.232Z,0
2019-02-26T01:50:04.618Z,0
2019-02-26T01:51:10.451Z,0
2019-02-26T01:52:12.715Z,0
2019-02-26T01:53:14.520Z,0
2019-02-26T01:55:28.651Z,0
2019-02-26T01:56:29.270Z,0
2019-02-26T01:57:29.842Z,0
2019-02-26T01:58:33.460Z,0
2019-02-26T01:59:34.505Z,0
2019-02-26T02:00:33.588Z,0
2019-02-26T02:01:34.151Z,0
2019-02-26T02:02:34.720Z,0
2019-02-26T02:03:35.340Z,0
2019-02-26T02:04:37.067Z,0
2019-02-26T02:05:37.473Z,0
2019-02-26T02:06:39.257Z,0
2019-02-26T02:07:38.646Z,0
2019-02-26T02:08:41.627Z,0
2019-02-26T02:21:12.980Z,0
2019-02-26T02:23:15.374Z,0
2019-02-26T02:24:17.563Z,0
2019-02-26T02:26:09.397Z,0
2019-02-26T02:27:08.015Z,0
2019-02-26T02:29:12.670Z,0
2019-02-26T02:30:18.528Z,0
2019-02-26T02:31:12.317Z,0
2019-02-26T02:32:12.899Z,0
2019-02-26T02:33:17.279Z,0
2019-02-26T02:34:15.109Z,0
2019-02-26T02:35:18.935Z,0
2019-02-26T02:36:17.729Z,0
2019-02-26T02:37:19.806Z,0
2019-02-26T02:38:20.412Z,0
2019-02-26T02:39:20.876Z,0
2019-02-26T02:40:21.576Z,0
2019-02-26T02:41:51.357Z,0
2019-02-26T02:42:49.597Z,0
2019-02-26T02:43:50.188Z,0
2019-02-26T02:46:17.953Z,0
2019-02-26T02:48:45.715Z,0
2019-02-26T02:50:20.073Z,0
2019-02-26T02:53:37.665Z,0
2019-02-26T02:54:39.264Z,0
2019-02-26T02:55:40.253Z,0
2019-02-26T02:56:45.515Z,0
2019-02-26T02:57:48.700Z,0
2019-02-26T02:58:49.510Z,0
2019-02-26T02:59:49.276Z,0
2019-02-26T03:00:52.220Z,0
2019-02-26T03:01:52.745Z,0
2019-02-26T03:03:56.435Z,0
2019-02-26T03:04:56.106Z,0
2019-02-26T03:05:58.343Z,0
2019-02-26T03:07:12.051Z,0
2019-02-26T03:14:39.197Z,0
2019-02-26T03:18:32.502Z,0
2019-02-26T03:23:28.806Z,0
2019-02-26T03:24:51.356Z,0
2019-02-26T03:25:52.253Z,0
2019-02-26T03:26:51.824Z,0
2019-02-26T03:27:52.397Z,0
2019-02-26T03:28:53.347Z,0
2019-02-26T03:29:56.242Z,0
2019-02-26T03:30:55.174Z,0
2019-02-26T03:31:55.771Z,0
2019-02-26T03:33:02.872Z,0
2019-02-26T03:34:04.183Z,0
2019-02-26T03:35:02.097Z,0
2019-02-26T03:36:01.094Z,0
2019-02-26T03:37:03.855Z,0
2019-02-26T03:38:03.620Z,0
2019-02-26T03:39:04.282Z,0
2019-02-26T03:40:06.561Z,0
2019-02-26T03:41:06.426Z,0
2019-02-26T03:42:08.226Z,0
2019-02-26T03:43:10.301Z,0
2019-02-26T03:44:10.184Z,0
2019-02-26T03:45:10.759Z,0
2019-02-26T03:46:11.342Z,0
2019-02-26T03:47:11.910Z,0
2019-02-26T03:48:12.486Z,0
2019-02-26T03:49:13.112Z,0
2019-02-26T03:51:17.824Z,0
2019-02-26T03:52:16.816Z,0
2019-02-26T03:53:17.388Z,0
2019-02-26T03:54:17.992Z,0
2019-02-26T03:55:19.215Z,0
2019-02-26T03:56:20.553Z,0
2019-02-26T03:57:22.720Z,0
2019-02-26T03:58:22.782Z,0
2019-02-26T03:59:23.349Z,0
2019-02-26T04:00:23.915Z,0
2019-02-26T04:01:24.483Z,0
2019-02-26T04:02:25.102Z,0
2019-02-26T04:03:25.670Z,0
2019-02-26T04:04:28.469Z,0
2019-02-26T04:05:27.798Z,0
2019-02-26T04:06:30.509Z,0
2019-02-26T04:07:30.267Z,0
2019-02-26T04:08:31.540Z,0
2019-02-26T04:09:32.157Z,0
2019-02-26T04:10:32.725Z,0
2019-02-26T04:11:33.295Z,0
2019-02-26T04:12:39.289Z,0
2019-02-26T04:13:35.425Z,0
2019-02-26T04:14:35.995Z,0
2019-02-26T04:15:38.351Z,0
2019-02-26T04:16:40.430Z,0
2019-02-26T04:17:40.140Z,0
2019-02-26T04:18:40.301Z,0
2019-02-26T04:19:43.544Z,0
2019-02-26T04:20:44.261Z,0
2019-02-26T04:21:44.032Z,0
2019-02-26T04:22:48.981Z,0
2019-02-26T04:23:46.725Z,0
2019-02-26T04:24:47.284Z,0
2019-02-26T04:25:49.480Z,0
2019-02-26T04:26:49.468Z,0
2019-02-26T04:27:50.077Z,0
2019-02-26T04:28:50.696Z,0
2019-02-26T04:29:51.265Z,0
2019-02-26T04:30:52.476Z,0
2019-02-26T04:31:54.762Z,0
2019-02-26T04:32:54.624Z,0
2019-02-26T04:33:55.903Z,0
2019-02-26T04:34:59.077Z,0
2019-02-26T04:35:56.459Z,0
2019-02-26T04:36:59.035Z,0
2019-02-26T04:38:00.904Z,0
2019-02-26T04:39:00.157Z,0
2019-02-26T04:40:02.375Z,0
2019-02-26T04:41:03.079Z,0
2019-02-26T04:42:05.520Z,0
2019-02-26T04:43:05.227Z,0
2019-02-26T04:44:06.318Z,0
2019-02-26T04:45:09.076Z,0
2019-02-26T04:46:10.901Z,0
2019-02-26T04:47:09.115Z,0
2019-02-26T04:48:09.684Z,0
2019-02-26T04:49:10.254Z,0
2019-02-26T04:50:10.873Z,0
2019-02-26T04:51:11.442Z,0
2019-02-26T04:52:14.279Z,0
2019-02-26T04:57:09.668Z,0
2019-02-26T04:58:12.224Z,0
2019-02-26T04:59:12.571Z,0
2019-02-26T05:00:13.355Z,0
2019-02-26T05:01:16.417Z,0
2019-02-26T05:02:15.483Z,0
2019-02-26T05:03:18.097Z,0
2019-02-26T05:04:17.661Z,0
2019-02-26T05:06:19.797Z,0
2019-02-26T05:07:20.405Z,0
2019-02-26T05:08:20.970Z,0
2019-02-26T05:09:22.230Z,0
2019-02-26T05:10:24.373Z,0
2019-02-26T05:11:31.687Z,0
2019-02-26T05:12:28.707Z,0
2019-02-26T05:13:30.202Z,0
2019-02-26T05:14:29.400Z,0
2019-02-26T05:15:30.939Z,0
2019-02-26T05:16:34.571Z,0
2019-02-26T05:17:33.463Z,0
2019-02-26T05:18:34.619Z,0
2019-02-26T05:19:36.508Z,0
2019-02-26T05:20:36.788Z,0
2019-02-26T05:21:37.970Z,0
2019-02-26T05:22:38.531Z,0
2019-02-26T05:23:39.098Z,0
2019-02-26T05:24:42.427Z,0
2019-02-26T05:25:43.012Z,0
2019-02-26T05:26:42.843Z,0
2019-02-26T05:27:46.160Z,0
2019-02-26T05:28:46.403Z,0
2019-02-26T05:29:46.572Z,0
2019-02-26T05:30:49.494Z,0
2019-02-26T05:31:48.907Z,0
2019-02-26T05:32:51.930Z,0
2019-02-26T05:33:52.510Z,0
2019-02-26T05:34:52.601Z,0
2019-02-26T05:36:08.671Z,0
2019-02-26T05:37:11.004Z,0
2019-02-26T05:38:10.055Z,0
2019-02-26T05:39:10.626Z,0
2019-02-26T05:40:13.339Z,0
2019-02-26T05:41:12.804Z,0
2019-02-26T05:42:13.374Z,0
2019-02-26T05:43:13.941Z,0
2019-02-26T05:44:14.567Z,0
2019-02-26T05:45:15.160Z,0
2019-02-26T05:46:16.798Z,0
2019-02-26T05:47:19.278Z,0
2019-02-26T05:48:21.155Z,0
2019-02-26T05:49:20.465Z,0
2019-02-26T05:50:21.031Z,0
2019-02-26T05:51:21.614Z,0
2019-02-26T05:52:24.313Z,0
2019-02-26T05:53:23.733Z,0
2019-02-26T05:54:24.544Z,0
2019-02-26T05:55:25.618Z,0
2019-02-26T05:56:26.722Z,0
2019-02-26T05:57:32.357Z,0
2019-02-26T05:58:28.852Z,0
2019-02-26T05:59:29.474Z,0
2019-02-26T06:00:33.193Z,0
2019-02-26T06:01:31.602Z,0
2019-02-26T06:02:32.170Z,0
2019-02-26T06:03:32.739Z,0
2019-02-26T06:04:35.170Z,0
2019-02-26T06:05:33.965Z,0
2019-02-26T06:06:34.535Z,0
2019-02-26T06:07:36.795Z,0
2019-02-26T06:08:39.275Z,0
2019-02-26T06:09:38.227Z,0
2019-02-26T06:10:38.844Z,0
2019-02-26T06:11:41.813Z,0
2019-02-26T06:12:43.808Z,0
2019-02-26T06:13:43.257Z,0
2019-02-26T06:14:43.143Z,0
2019-02-26T06:15:43.713Z,0
2019-02-26T06:16:46.202Z,0
2019-02-26T06:17:48.154Z,0
2019-02-26T06:18:49.101Z,0
2019-02-26T06:19:48.009Z,0
2019-02-26T06:20:50.879Z,0
2019-02-26T06:21:52.520Z,0
2019-02-26T06:22:51.752Z,0
2019-02-26T06:23:52.322Z,0
2019-02-26T06:24:57.234Z,0
2019-02-26T06:25:55.999Z,0
2019-02-26T06:26:56.108Z,0
2019-02-26T06:27:56.681Z,0
2019-02-26T06:28:57.251Z,0
2019-02-26T06:30:00.136Z,0
2019-02-26T06:30:58.517Z,0
2019-02-26T06:32:01.327Z,0
2019-02-26T06:33:04.375Z,0
2019-02-26T06:34:06.435Z,0
2019-02-26T06:35:06.686Z,0
2019-02-26T06:36:07.187Z,0
2019-02-26T06:37:09.463Z,0
2019-02-26T06:38:11.245Z,0
2019-02-26T06:39:10.883Z,0
2019-02-26T06:40:11.458Z,0
2019-02-26T06:41:12.023Z,0
2019-02-26T06:42:14.416Z,0
2019-02-26T06:43:14.150Z,0
2019-02-26T06:44:14.811Z,0
2019-02-26T06:45:16.569Z,0
2019-02-26T06:46:16.941Z,0
2019-02-26T06:47:17.515Z,0
2019-02-26T06:48:20.178Z,0
2019-02-26T06:49:20.713Z,0
2019-02-26T06:50:20.305Z,0
2019-02-26T06:51:22.097Z,0
2019-02-26T06:52:22.432Z,0
2019-02-26T06:53:23.003Z,0
2019-02-26T06:54:24.952Z,0
2019-02-26T06:55:25.131Z,0
2019-02-26T06:56:25.748Z,0
2019-02-26T06:57:26.317Z,0
2019-02-26T06:58:26.893Z,0
2019-02-26T06:59:29.368Z,0
2019-02-26T07:00:29.484Z,0
2019-02-26T07:01:32.342Z,0
2019-02-26T07:02:31.629Z,0
2019-02-26T07:03:32.198Z,0
2019-02-26T07:04:32.765Z,0
2019-02-26T07:05:33.333Z,0
2019-02-26T07:06:34.896Z,0
2019-02-26T07:07:35.466Z,0
2019-02-26T07:08:36.032Z,0
2019-02-26T07:09:37.383Z,0
2019-02-26T07:10:38.164Z,0
2019-02-26T07:11:38.785Z,0
2019-02-26T07:12:41.318Z,0
2019-02-26T07:13:43.407Z,0
2019-02-26T07:14:41.520Z,0
2019-02-26T07:15:43.004Z,0
2019-02-26T07:16:42.756Z,0
2019-02-26T07:17:46.039Z,0
2019-02-26T07:18:43.911Z,0
2019-02-26T07:19:44.480Z,0
2019-02-26T07:20:49.182Z,0
2019-02-26T07:21:48.087Z,0
2019-02-26T07:22:49.626Z,0
2019-02-26T07:23:51.632Z,0
2019-02-26T07:24:51.968Z,0
2019-02-26T07:25:52.854Z,0
2019-02-26T07:26:53.424Z,0
2019-02-26T07:27:55.830Z,0
2019-02-26T07:28:55.553Z,0
2019-02-26T07:29:56.122Z,0
2019-02-26T07:30:56.690Z,0
2019-02-26T07:31:58.903Z,8
2019-02-26T07:32:58.973Z,8
2019-02-26T07:34:01.330Z,8
2019-02-26T07:35:01.202Z,8
2019-02-26T07:36:04.056Z,8
2019-02-26T07:37:04.123Z,8
2019-02-26T07:38:03.957Z,0
2019-02-26T07:39:05.128Z,0
2019-02-26T07:40:08.154Z,0
2019-02-26T07:41:07.387Z,0
2019-02-26T07:42:09.257Z,0
2019-02-26T07:43:15.454Z,0
2019-02-26T07:44:18.880Z,0
2019-02-26T07:45:19.856Z,0
2019-02-26T07:46:21.084Z,0
2019-02-26T07:47:22.113Z,0
2019-02-26T07:48:23.804Z,0
2019-02-26T07:49:23.998Z,0
2019-02-26T07:50:24.568Z,0
2019-02-26T07:51:25.138Z,0
2019-02-26T07:52:26.598Z,0
2019-02-26T07:53:27.358Z,0
2019-02-26T07:54:28.827Z,0
2019-02-26T07:55:30.800Z,0
2019-02-26T07:56:32.750Z,0
2019-02-26T07:57:32.613Z,0
2019-02-26T07:58:38.956Z,0
2019-02-26T07:59:39.701Z,0
2019-02-26T08:00:42.474Z,0
2019-02-26T08:01:42.961Z,0
2019-02-26T08:02:43.527Z,0
2019-02-26T08:03:46.419Z,0
2019-02-26T08:04:45.658Z,0
2019-02-26T08:05:46.225Z,0
2019-02-26T08:06:46.794Z,0
2019-02-26T08:07:48.543Z,0
2019-02-26T08:08:49.028Z,0
2019-02-26T08:09:49.556Z,0
2019-02-26T08:10:50.772Z,0
2019-02-26T08:11:50.880Z,0
2019-02-26T08:12:58.520Z,0
2019-02-26T08:13:59.250Z,0
2019-02-26T08:14:59.577Z,0
2019-02-26T08:16:02.326Z,4
2019-02-26T08:17:03.822Z,0
2019-02-26T08:18:03.467Z,0
2019-02-26T08:19:04.027Z,0
2019-02-26T08:20:07.385Z,0
2019-02-26T08:21:06.159Z,0
2019-02-26T08:22:06.725Z,4
2019-02-26T08:23:07.294Z,4
2019-02-26T08:24:07.863Z,4
2019-02-26T08:25:08.433Z,4
2019-02-26T08:26:09.050Z,4
2019-02-26T08:27:11.611Z,4
2019-02-26T08:28:13.016Z,4
2019-02-26T08:29:12.742Z,4
2019-02-26T08:30:14.826Z,4
2019-02-26T08:31:16.053Z,4
2019-02-26T08:32:18.153Z,8
2019-02-26T08:33:17.047Z,8
2019-02-26T08:34:17.612Z,8
2019-02-26T08:35:18.951Z,8
2019-02-26T08:36:19.594Z,8
2019-02-26T08:37:20.156Z,8
2019-02-26T08:38:20.724Z,8
2019-02-26T08:39:21.293Z,8
2019-02-26T08:40:21.860Z,8
2019-02-26T08:41:22.430Z,4
2019-02-26T08:42:23.423Z,4
2019-02-26T08:43:23.939Z,4
2019-02-26T08:44:24.558Z,4
2019-02-26T08:45:25.744Z,4
2019-02-26T08:46:26.575Z,4
2019-02-26T08:47:27.139Z,4
2019-02-26T08:48:27.707Z,4
2019-02-26T08:49:28.276Z,4
2019-02-26T08:50:33.103Z,8
2019-02-26T08:51:30.459Z,8
2019-02-26T08:52:31.027Z,12
2019-02-26T08:53:31.728Z,8
2019-02-26T08:54:33.211Z,12
2019-02-26T08:55:33.816Z,8
2019-02-26T08:56:36.294Z,12
2019-02-26T08:57:35.950Z,8
2019-02-26T08:58:36.520Z,8
2019-02-26T08:59:37.138Z,8
2019-02-26T09:00:37.709Z,8
2019-02-26T09:01:38.278Z,12
2019-02-26T09:02:38.854Z,12
2019-02-26T09:03:40.863Z,8
2019-02-26T09:04:42.660Z,12
2019-02-26T09:05:42.592Z,12
2019-02-26T09:06:43.161Z,12
2019-02-26T09:07:45.589Z,12
2019-02-26T09:08:45.293Z,12
2019-02-26T09:09:47.675Z,12
2019-02-26T09:11:50.384Z,12
2019-02-26T09:12:51.958Z,12
2019-02-26T09:13:52.114Z,12
2019-02-26T09:14:52.683Z,12
2019-02-26T09:15:55.149Z,12
2019-02-26T09:16:56.858Z,16
2019-02-26T09:17:56.430Z,12
2019-02-26T09:18:57.002Z,12
2019-02-26T09:20:06.982Z,12
2019-02-26T09:20:59.135Z,12
2019-02-26T09:21:59.705Z,12
2019-02-26T09:23:01.464Z,16
2019-02-26T09:24:04.661Z,16
2019-02-26T09:25:03.502Z,16
2019-02-26T09:26:05.144Z,12
2019-02-26T09:27:05.633Z,12
2019-02-26T09:28:06.203Z,12
2019-02-26T09:29:06.828Z,12
2019-02-26T09:30:08.523Z,12
2019-02-26T09:31:09.626Z,12
2019-02-26T09:32:11.737Z,16
2019-02-26T09:33:12.086Z,16
2019-02-26T09:34:12.706Z,16
2019-02-26T09:35:13.324Z,16
2019-02-26T09:36:15.730Z,16
2019-02-26T09:37:15.457Z,16
2019-02-26T09:38:17.693Z,12
2019-02-26T09:39:17.588Z,12
2019-02-26T09:40:20.272Z,12
2019-02-26T09:41:21.465Z,12
2019-02-26T09:42:23.160Z,12
2019-02-26T09:43:24.484Z,16
2019-02-26T09:44:26.153Z,16
2019-02-26T09:45:26.896Z,16
2019-02-26T09:46:26.582Z,16
2019-02-26T09:47:30.383Z,16
2019-02-26T09:48:28.763Z,16
2019-02-26T09:49:32.758Z,16
2019-02-26T09:50:30.895Z,16
2019-02-26T09:51:33.008Z,16
2019-02-26T09:52:32.712Z,16
2019-02-26T09:53:33.353Z,16
2019-02-26T09:54:37.766Z,16
2019-02-26T09:55:35.535Z,16
2019-02-26T09:56:36.105Z,12
2019-02-26T09:57:36.676Z,12
2019-02-26T09:58:39.803Z,12
2019-02-26T09:59:38.810Z,12
2019-02-26T10:00:40.574Z,16
2019-02-26T10:01:42.838Z,16
2019-02-26T10:02:44.268Z,16
2019-02-26T10:03:44.069Z,16
2019-02-26T10:04:45.518Z,16
2019-02-26T10:05:48.204Z,16
2019-02-26T10:06:47.815Z,16
2019-02-26T10:07:48.386Z,16
2019-02-26T10:08:50.821Z,16
2019-02-26T10:09:49.564Z,16
2019-02-26T10:10:51.942Z,16
2019-02-26T10:11:51.737Z,16
2019-02-26T10:12:54.330Z,16
2019-02-26T10:13:53.893Z,16
2019-02-26T10:14:55.359Z,16
2019-02-26T10:15:58.593Z,16
2019-02-26T10:16:57.639Z,16
2019-02-26T10:18:00.893Z,16
2019-02-26T10:18:59.772Z,16
2019-02-26T10:20:01.927Z,20
2019-02-26T10:21:01.963Z,20
2019-02-26T10:22:03.558Z,20
2019-02-26T10:23:06.206Z,20
2019-02-26T10:24:04.727Z,24
2019-02-26T10:25:05.318Z,24
2019-02-26T10:26:07.804Z,24
2019-02-26T10:27:09.389Z,24
2019-02-26T10:28:11.516Z,24
2019-02-26T10:29:09.675Z,24
2019-02-26T10:30:13.012Z,24
2019-02-26T10:31:11.810Z,24
2019-02-26T10:32:12.378Z,24
2019-02-26T10:33:17.315Z,24
2019-02-26T10:34:15.748Z,24
2019-02-26T10:35:18.631Z,24
2019-02-26T10:36:18.384Z,24
2019-02-26T10:37:19.074Z,24
2019-02-26T10:38:19.647Z,24
2019-02-26T10:39:21.404Z,24
2019-02-26T10:40:21.786Z,24
2019-02-26T10:41:22.355Z,24
2019-02-26T10:42:22.926Z,24
2019-02-26T10:43:23.547Z,24
2019-02-26T10:44:24.115Z,24
2019-02-26T10:45:24.689Z,24
2019-02-26T10:46:25.256Z,24
2019-02-26T10:47:27.432Z,24
2019-02-26T10:48:27.921Z,24
2019-02-26T10:49:28.800Z,24
2019-02-26T10:50:31.762Z,24
2019-02-26T10:51:30.995Z,24
2019-02-26T10:52:31.610Z,24
2019-02-26T10:53:32.180Z,24
2019-02-26T10:54:39.530Z,24
2019-02-26T10:55:38.749Z,24
2019-02-26T10:56:39.206Z,24
2019-02-26T10:57:38.496Z,24
2019-02-26T10:58:39.054Z,24
2019-02-26T10:59:41.853Z,24
2019-02-26T11:00:41.194Z,24
2019-02-26T11:01:41.758Z,24
2019-02-26T11:02:43.378Z,24
2019-02-26T11:03:46.447Z,24
2019-02-26T11:04:46.912Z,24
2019-02-26T11:05:52.490Z,24
2019-02-26T11:06:53.026Z,24
2019-02-26T11:07:55.748Z,24
2019-02-26T11:08:55.748Z,24
2019-02-26T11:09:58.948Z,24
2019-02-26T11:10:58.287Z,20
2019-02-26T11:12:00.818Z,24
2019-02-26T11:13:00.423Z,24
2019-02-26T11:14:00.994Z,24
2019-02-26T11:15:04.321Z,24
2019-02-26T11:16:03.232Z,28
2019-02-26T11:17:03.785Z,24
2019-02-26T11:18:04.358Z,24
2019-02-26T11:19:06.974Z,24
2019-02-26T11:20:07.749Z,24
2019-02-26T11:21:08.154Z,24
2019-02-26T11:22:08.724Z,24
2019-02-26T11:23:13.219Z,24
2019-02-26T11:24:11.350Z,24
2019-02-26T11:25:13.385Z,28
2019-02-26T11:26:15.482Z,28
2019-02-26T11:27:17.130Z,28
2019-02-26T11:28:16.624Z,28
2019-02-26T11:29:17.203Z,24
2019-02-26T11:30:20.578Z,24
2019-02-26T11:31:20.553Z,20
2019-02-26T11:32:21.017Z,24
2019-02-26T11:33:21.593Z,20
2019-02-26T11:34:22.169Z,24
2019-02-26T11:35:24.533Z,28
2019-02-26T11:36:25.137Z,24
2019-02-26T11:37:27.143Z,24
2019-02-26T11:38:27.359Z,20
2019-02-26T11:39:27.936Z,20
2019-02-26T11:40:30.570Z,24
2019-02-26T11:41:31.199Z,24
2019-02-26T11:42:31.706Z,24
2019-02-26T11:43:32.283Z,20
2019-02-26T11:44:32.868Z,20
2019-02-26T11:45:35.174Z,16
2019-02-26T11:46:35.107Z,16
2019-02-26T11:47:37.406Z,16
2019-02-26T11:48:37.249Z,16
2019-02-26T11:49:39.436Z,16
2019-02-26T11:50:41.611Z,20
2019-02-26T11:51:42.475Z,16
2019-02-26T11:52:42.536Z,16
2019-02-26T11:53:43.457Z,16
2019-02-26T11:54:44.747Z,16
2019-02-26T11:55:45.308Z,16
2019-02-26T11:56:47.435Z,16
2019-02-26T11:57:49.603Z,20
2019-02-26T11:58:49.029Z,16
2019-02-26T11:59:49.601Z,16
2019-02-26T12:00:50.796Z,16
2019-02-26T12:01:51.536Z,20
2019-02-26T12:02:52.112Z,16
2019-02-26T12:03:55.761Z,20
2019-02-26T12:04:54.886Z,24
2019-02-26T12:05:56.633Z,20
2019-02-26T12:06:58.611Z,20
2019-02-26T12:07:58.898Z,24
2019-02-26T12:08:59.457Z,5048
2019-02-26T12:10:04.680Z,4876
2019-02-26T12:11:04.003Z,4980
2019-02-26T12:12:03.476Z,4780
2019-02-26T12:13:02.940Z,4576
2019-02-26T12:14:03.520Z,4616
2019-02-26T12:15:04.896Z,4840
2019-02-26T12:16:05.675Z,5192
2019-02-26T12:17:06.255Z,5156
2019-02-26T12:18:06.834Z,5028
2019-02-26T12:19:10.130Z,4848
2019-02-26T12:20:08.987Z,4640
2019-02-26T12:21:10.541Z,4460
2019-02-26T12:22:11.143Z,4128
2019-02-26T12:23:14.298Z,4168
2019-02-26T12:24:13.350Z,4100
2019-02-26T12:25:14.020Z,3936
2019-02-26T12:26:16.357Z,3844
2019-02-26T12:27:18.262Z,3816
2019-02-26T12:28:17.802Z,3812
2019-02-26T12:29:20.474Z,3800
2019-02-26T12:30:20.687Z,3808
2019-02-26T12:31:21.437Z,3808
2019-02-26T12:32:24.341Z,3760
2019-02-26T12:33:23.642Z,3780
2019-02-26T12:34:24.224Z,3756
2019-02-26T12:35:24.804Z,3632
2019-02-26T12:36:26.621Z,3540
2019-02-26T12:37:26.960Z,3548
2019-02-26T12:38:27.540Z,3468
2019-02-26T12:39:31.205Z,3492
2019-02-26T12:40:28.740Z,3452
2019-02-26T12:41:29.368Z,3320
2019-02-26T12:42:29.948Z,3352
2019-02-26T12:43:32.980Z,3304
2019-02-26T12:44:34.896Z,3312
2019-02-26T12:45:35.137Z,3356
2019-02-26T12:46:35.251Z,3292
2019-02-26T12:47:35.833Z,3492
2019-02-26T12:48:37.836Z,3468
2019-02-26T12:49:39.153Z,3620
2019-02-26T12:50:40.430Z,3644
2019-02-26T12:51:41.234Z,3700
2019-02-26T12:52:42.321Z,3764
2019-02-26T12:53:46.100Z,3812
2019-02-26T12:54:45.064Z,3768
2019-02-26T12:55:45.687Z,3568
2019-02-26T12:56:46.269Z,3720
2019-02-26T12:57:49.746Z,3468
2019-02-26T12:58:51.324Z,3648
2019-02-26T12:59:50.048Z,3688
2019-02-26T13:00:50.673Z,3752
2019-02-26T13:01:51.914Z,3800
2019-02-26T13:02:52.599Z,3764
2019-02-26T13:03:54.997Z,3696
2019-02-26T13:04:53.789Z,3624
2019-02-26T13:05:54.370Z,3580
2019-02-26T13:06:54.951Z,3540
2019-02-26T13:07:55.537Z,3476
2019-02-26T13:08:56.115Z,3396
2019-02-26T13:10:01.020Z,3340
2019-02-26T13:10:58.544Z,3216
2019-02-26T13:12:02.526Z,3180
2019-02-26T13:13:02.995Z,3112
2019-02-26T13:14:01.338Z,3060
2019-02-26T13:15:04.896Z,3052
2019-02-26T13:16:03.493Z,3020
2019-02-26T13:17:04.070Z,3012
2019-02-26T13:18:04.650Z,3052
2019-02-26T13:19:05.233Z,3064
2019-02-26T13:20:11.042Z,3036
2019-02-26T13:21:11.201Z,3048
2019-02-26T13:22:12.587Z,3052
2019-02-26T13:23:20.749Z,3048
2019-02-26T13:24:17.073Z,3056
2019-02-26T13:25:17.481Z,3064
2019-02-26T13:26:19.587Z,3048
2019-02-26T13:27:16.822Z,3012
2019-02-26T13:28:17.435Z,3060
2019-02-26T13:29:17.983Z,3096
2019-02-26T13:30:18.614Z,3096
2019-02-26T13:31:22.524Z,3132
2019-02-26T13:32:21.306Z,3144
2019-02-26T13:33:27.261Z,3152
2019-02-26T13:34:22.963Z,3156
2019-02-26T13:35:23.544Z,3164
2019-02-26T13:36:24.172Z,3084
2019-02-26T13:37:26.726Z,3140
2019-02-26T13:38:33.953Z,3228
2019-02-26T13:39:33.041Z,3256
2019-02-26T13:40:28.529Z,3316
2019-02-26T13:41:30.407Z,3340
2019-02-26T13:42:30.675Z,3348
2019-02-26T13:43:31.341Z,3340
2019-02-26T13:44:31.921Z,3372
2019-02-26T13:45:32.509Z,3404
2019-02-26T13:46:33.083Z,3408
2019-02-26T13:47:33.665Z,3416
2019-02-26T13:48:34.246Z,3448
2019-02-26T13:49:34.825Z,3468
2019-02-26T13:50:35.407Z,3488
2019-02-26T13:51:36.039Z,3540
2019-02-26T13:52:36.661Z,3604
2019-02-26T13:53:37.243Z,3664
2019-02-26T13:54:37.830Z,3736
2019-02-26T13:55:38.406Z,3812
2019-02-26T13:56:39.036Z,3896
2019-02-26T13:57:39.619Z,3972
2019-02-26T13:58:40.199Z,4084
2019-02-26T13:59:40.785Z,4220
2019-02-26T14:00:41.418Z,4336
2019-02-26T14:01:42.044Z,4476
2019-02-26T14:02:42.626Z,4628
2019-02-26T14:03:43.215Z,4808
2019-02-26T14:04:43.835Z,5016
2019-02-26T14:05:44.463Z,5216
2019-02-26T14:06:45.046Z,5448
2019-02-26T14:07:45.628Z,5648
2019-02-26T14:08:46.208Z,5872
2019-02-26T14:09:46.791Z,6136
2019-02-26T14:10:47.543Z,6400
2019-02-26T14:11:48.125Z,6668
2019-02-26T14:12:48.757Z,6944
2019-02-26T14:13:49.349Z,7228
2019-02-26T14:14:49.969Z,7532
2019-02-26T14:15:50.552Z,7880
2019-02-26T14:16:51.134Z,8252
2019-02-26T14:17:51.714Z,8608
2019-02-26T14:18:52.295Z,8932
2019-02-26T14:19:52.877Z,9328
2019-02-26T14:20:53.685Z,9732
2019-02-26T14:21:54.268Z,9856
2019-02-26T14:22:54.852Z,10152
2019-02-26T14:23:55.481Z,11256
2019-02-26T14:24:56.065Z,11484
2019-02-26T14:25:56.647Z,12504
2019-02-26T14:26:57.231Z,12128
2019-02-26T14:27:57.814Z,13168
2019-02-26T14:28:58.449Z,13944
2019-02-26T14:29:59.033Z,14096
2019-02-26T14:30:59.842Z,14588
2019-02-26T14:32:00.425Z,13196
2019-02-26T14:33:01.008Z,12860
2019-02-26T14:34:01.591Z,12928
2019-02-26T14:35:02.174Z,13940
2019-02-26T14:36:02.809Z,13956
2019-02-26T14:37:03.399Z,16184
2019-02-26T14:38:03.982Z,19616
2019-02-26T14:39:04.609Z,19232
2019-02-26T14:40:05.200Z,18336
2019-02-26T14:41:05.985Z,18688
2019-02-26T14:42:06.568Z,19168
2019-02-26T14:43:07.158Z,19616
2019-02-26T14:44:07.741Z,19968
2019-02-26T14:45:08.325Z,18528
2019-02-26T14:46:08.963Z,16464
2019-02-26T14:48:11.169Z,16484
2019-02-26T14:49:11.794Z,18240
2019-02-26T14:50:12.382Z,17632
2019-02-26T14:51:13.132Z,15356
2019-02-26T14:52:13.718Z,17072
2019-02-26T14:53:14.358Z,18336
2019-02-26T14:56:53.179Z,19872
2019-02-26T14:57:53.768Z,21888
2019-02-26T14:58:55.235Z,18688
2019-02-26T14:59:55.914Z,18784
2019-02-26T15:00:57.861Z,17008
2019-02-26T15:01:58.082Z,16852
2019-02-26T15:04:00.243Z,16616
2019-02-26T15:05:00.873Z,14200
2019-02-26T15:06:01.458Z,13508
2019-02-26T15:07:02.034Z,14976
2019-02-26T15:08:02.860Z,19840
2019-02-26T15:10:34.804Z,15432
2019-02-26T15:11:40.447Z,13320
2019-02-26T15:17:15.050Z,7920
2019-02-26T15:18:15.649Z,7536
2019-02-26T15:19:16.208Z,7224
2019-02-26T15:20:16.785Z,7536
2019-02-26T15:21:17.367Z,7448
2019-02-26T15:22:17.945Z,7992
2019-02-26T15:23:18.568Z,8328
2019-02-26T15:24:19.148Z,9748
2019-02-26T15:25:19.729Z,9856
2019-02-26T15:26:20.311Z,10132
2019-02-26T15:27:20.890Z,10964
2019-02-26T15:28:21.640Z,11656
2019-02-26T15:29:22.216Z,14092
2019-02-26T15:30:22.798Z,16132
2019-02-26T15:31:23.378Z,16896
2019-02-26T15:32:23.962Z,15120
2019-02-26T15:33:24.544Z,16960
2019-02-26T15:34:25.126Z,15044
2019-02-26T15:35:25.709Z,15316
2019-02-26T15:36:26.290Z,15144
2019-02-26T15:37:26.873Z,14888
2019-02-26T15:38:27.493Z,13476
2019-02-26T15:39:28.069Z,11592
2019-02-26T15:40:28.653Z,10704
2019-02-26T15:41:29.236Z,10032
2019-02-26T15:42:29.815Z,9684